Time;durP1;ratioP1;P1;durP2;ratioP2;P2;SDS_P1;SDS_P2;PMS_P1;PMS_P2;Temp;Humidity;BMP_temperature;BMP_pressure;BME280_temperature;BME280_humidity;BME280_pressure;Samples;Min_cycle;Max_cycle;Signal;HPM_P1;HPM_P2
2022/07/31 00:04:59;;;;;;;;;;;;;;;18.34;100.00;99999.19;10665700;27;20255;-67
2022/07/31 00:10:03;;;;;;;;;;;;;;;18.35;100.00;99993.00;10665083;27;19926;-68
2022/07/31 00:15:08;;;;;;;;;;;;;;;18.30;100.00;99989.75;10664856;27;19934;-66
2022/07/31 00:20:13;;;;;;;;;;;;;;;18.35;100.00;99990.38;10664594;27;20000;-65
2022/07/31 00:25:16;;;;;;;;;;;;;;;18.33;100.00;99984.34;10665514;27;19927;-67
2022/07/31 00:30:21;;;;;;;;;;;;;;;18.39;100.00;99972.69;10664863;27;19942;-64
2022/07/31 00:35:24;;;;;;;;;;;;;;;18.41;100.00;99974.34;10674765;27;19923;-68
2022/07/31 00:40:27;;;;;;;;;;;;;;;18.43;100.00;99972.50;10670780;27;19933;-73
2022/07/31 00:45:31;;;;;;;;;;;;;;;18.38;100.00;99969.22;10670064;27;19927;-68
2022/07/31 00:50:35;;;;;;;;;;;;;;;18.38;100.00;99966.59;10670216;27;19923;-68
2022/07/31 00:55:38;;;;;;;;;;;;;;;18.45;100.00;99963.72;10672943;27;19930;-68
2022/07/31 01:00:55;;;;;;;;;;;;;;;18.43;100.00;99971.63;10678680;27;19930;-67
2022/07/31 01:05:58;;;;;;;;;;;;;;;18.50;100.00;99964.34;10714830;27;20366;-69
2022/07/31 01:11:04;;;;;;;;;;;;;;;18.49;100.00;99954.72;10721445;27;19923;-69
2022/07/31 01:16:09;;;;;;;;;;;;;;;18.40;100.00;99954.25;10715564;27;19934;-65
2022/07/31 01:21:16;;;;;;;;;;;;;;;18.46;100.00;99944.38;10714163;27;19999;-69
2022/07/31 01:26:24;;;;;;;;;;;;;;;18.41;100.00;99945.44;10696367;27;19923;-69
2022/07/31 01:31:33;;;;;;;;;;;;;;;18.40;100.00;99929.75;10672802;27;20301;-67
2022/07/31 01:36:38;;;;;;;;;;;;;;;18.40;100.00;99917.47;10671020;27;19938;-67
2022/07/31 01:41:43;;;;;;;;;;;;;;;18.38;100.00;99907.91;10670981;27;19979;-68
2022/07/31 01:46:48;;;;;;;;;;;;;;;18.40;100.00;99899.06;10671470;27;19923;-69
2022/07/31 01:51:52;;;;;;;;;;;;;;;18.39;100.00;99899.13;10670367;27;19927;-67
2022/07/31 01:56:58;;;;;;;;;;;;;;;18.33;100.00;99892.38;10670433;27;19934;-68
2022/07/31 02:02:03;;;;;;;;;;;;;;;18.27;100.00;99889.22;10670188;27;19923;-64
2022/07/31 02:07:07;;;;;;;;;;;;;;;18.18;100.00;99887.03;10670534;27;19923;-69
2022/07/31 02:12:11;;;;;;;;;;;;;;;18.23;100.00;99893.75;10669974;27;19931;-67
2022/07/31 02:17:17;;;;;;;;;;;;;;;18.18;100.00;99897.53;10670097;27;19933;-65
2022/07/31 02:22:24;;;;;;;;;;;;;;;18.23;100.00;99885.03;10670248;27;19927;-66
2022/07/31 02:27:30;;;;;;;;;;;;;;;18.25;100.00;99891.06;10697385;27;19923;-71
2022/07/31 02:32:55;;;;;;;;;;;;;;;18.18;100.00;99887.88;10718244;27;19969;-69
2022/07/31 02:37:58;;;;;;;;;;;;;;;18.20;100.00;99880.78;10717866;27;20240;-70
2022/07/31 02:43:02;;;;;;;;;;;;;;;18.26;100.00;99877.84;10717755;27;19927;-66
2022/07/31 02:48:10;;;;;;;;;;;;;;;18.23;100.00;99869.25;10717620;27;19922;-69
2022/07/31 02:53:13;;;;;;;;;;;;;;;18.16;100.00;99873.97;10717401;27;19955;-72
2022/07/31 02:58:17;;;;;;;;;;;;;;;18.19;100.00;99867.69;10717341;27;19923;-70
2022/07/31 03:03:21;;;;;;;;;;;;;;;18.27;100.00;99868.19;10716826;27;19923;-68
2022/07/31 03:08:24;;;;;;;;;;;;;;;18.31;100.00;99862.69;10716647;27;19923;-67
2022/07/31 03:13:28;;;;;;;;;;;;;;;18.26;100.00;99856.81;10716623;27;19923;-66
2022/07/31 03:18:33;;;;;;;;;;;;;;;18.29;100.00;99854.03;10715432;27;20021;-71
2022/07/31 03:23:36;;;;;;;;;;;;;;;18.27;100.00;99842.75;10713476;27;19937;-68
2022/07/31 03:28:39;;;;;;;;;;;;;;;18.14;100.00;99841.66;10671750;27;19937;-65
2022/07/31 03:33:43;;;;;;;;;;;;;;;18.16;100.00;99841.59;10666203;27;19942;-65
2022/07/31 03:38:46;;;;;;;;;;;;;;;18.07;100.00;99840.25;10666614;27;19927;-70
2022/07/31 03:43:52;;;;;;;;;;;;;;;18.08;100.00;99828.84;10667030;27;19991;-66
2022/07/31 03:48:57;;;;;;;;;;;;;;;18.10;100.00;99826.13;10671429;27;19923;-67
2022/07/31 03:54:00;;;;;;;;;;;;;;;18.16;100.00;99820.56;10671805;27;19923;-70
2022/07/31 03:59:03;;;;;;;;;;;;;;;18.13;100.00;99816.34;10671598;27;19945;-66
2022/07/31 04:04:08;;;;;;;;;;;;;;;18.14;100.00;99811.91;10671340;27;19923;-65
2022/07/31 04:09:11;;;;;;;;;;;;;;;18.18;100.00;99809.06;10670885;27;20340;-67
2022/07/31 04:14:20;;;;;;;;;;;;;;;18.23;100.00;99812.31;10670657;27;19934;-66
2022/07/31 04:19:25;;;;;;;;;;;;;;;18.21;100.00;99800.16;10670585;27;20251;-67
2022/07/31 04:24:28;;;;;;;;;;;;;;;18.27;100.00;99798.06;10670366;27;19923;-68
2022/07/31 04:29:31;;;;;;;;;;;;;;;18.29;100.00;99795.41;10670359;27;19933;-65
2022/07/31 04:34:35;;;;;;;;;;;;;;;18.19;100.00;99795.00;10670128;27;20250;-68
2022/07/31 04:39:38;;;;;;;;;;;;;;;18.18;100.00;99798.56;10670407;27;19937;-67
2022/07/31 04:44:41;;;;;;;;;;;;;;;18.27;100.00;99792.00;10670291;27;19937;-69
2022/07/31 04:49:45;;;;;;;;;;;;;;;18.29;100.00;99795.41;10670158;27;19923;-62
2022/07/31 04:54:48;;;;;;;;;;;;;;;18.31;100.00;99801.41;10317705;27;10000766;-65
2022/07/31 04:59:51;;;;;;;;;;;;;;;18.36;100.00;99804.69;10706998;27;19937;-65
2022/07/31 05:05:04;;;;;;;;;;;;;;;18.39;100.00;99797.50;10706789;27;19955;-68
2022/07/31 05:10:07;;;;;;;;;;;;;;;18.46;100.00;99795.44;10707508;27;19933;-65
2022/07/31 05:15:10;;;;;;;;;;;;;;;18.36;100.00;99797.63;10706793;27;19933;-68
2022/07/31 05:20:14;;;;;;;;;;;;;;;18.27;100.00;99792.81;10707124;27;19937;-67
2022/07/31 05:25:17;;;;;;;;;;;;;;;18.30;100.00;99803.19;10707512;27;19930;-67
2022/07/31 05:30:20;;;;;;;;;;;;;;;18.24;100.00;99798.25;10706096;27;19927;-67
2022/07/31 05:35:33;;;;;;;;;;;;;;;18.19;100.00;99797.63;10706192;27;19926;-71
2022/07/31 05:40:36;;;;;;;;;;;;;;;18.21;100.00;99798.41;10707037;27;19923;-66
2022/07/31 05:45:39;;;;;;;;;;;;;;;18.29;100.00;99790.97;10714615;27;19926;-66
2022/07/31 05:50:44;;;;;;;;;;;;;;;18.32;100.00;99793.47;10713755;27;20457;-66
2022/07/31 05:55:48;;;;;;;;;;;;;;;18.36;100.00;99792.38;10689118;27;19923;-68
2022/07/31 06:00:51;;;;;;;;;;;;;;;18.33;100.00;99789.03;10671464;27;19930;-70
2022/07/31 06:05:56;;;;;;;;;;;;;;;18.28;100.00;99789.28;10669901;27;19938;-74
2022/07/31 06:10:59;;;;;;;;;;;;;;;18.26;100.00;99803.41;10669778;27;19968;-68
2022/07/31 06:16:02;;;;;;;;;;;;;;;18.23;100.00;99795.69;10670181;27;19927;-68
2022/07/31 06:21:06;;;;;;;;;;;;;;;18.12;100.00;99780.47;10669306;27;19946;-67
2022/07/31 06:26:10;;;;;;;;;;;;;;;18.11;100.00;99785.81;10669102;27;19927;-70
2022/07/31 06:31:17;;;;;;;;;;;;;;;18.02;100.00;99784.47;10668865;27;19929;-69
2022/07/31 06:36:21;;;;;;;;;;;;;;;17.99;100.00;99787.25;10698466;27;19922;-65
2022/07/31 06:46:45;;;;;;;;;;;;;;;18.07;100.00;99787.72;10711915;27;20355;-66
2022/07/31 06:51:52;;;;;;;;;;;;;;;18.08;100.00;99794.69;10712193;27;19933;-67
2022/07/31 06:56:55;;;;;;;;;;;;;;;18.19;100.00;99791.50;10676767;27;19933;-70
2022/07/31 07:01:58;;;;;;;;;;;;;;;18.16;100.00;99786.41;10667806;27;19937;-65
2022/07/31 07:07:03;;;;;;;;;;;;;;;18.22;100.00;99779.06;10667945;27;19933;-75
2022/07/31 07:12:06;;;;;;;;;;;;;;;18.24;100.00;99779.03;10667612;27;20271;-75
2022/07/31 07:17:18;;;;;;;;;;;;;;;18.33;100.00;99771.50;10667580;27;19929;-64
2022/07/31 07:22:22;;;;;;;;;;;;;;;18.42;100.00;99772.84;10666904;27;20359;-66
2022/07/31 07:27:33;;;;;;;;;;;;;;;18.43;100.00;99771.91;10667942;27;20268;-65
2022/07/31 07:32:36;;;;;;;;;;;;;;;18.39;100.00;99771.22;10666288;27;19927;-70
2022/07/31 07:37:40;;;;;;;;;;;;;;;18.39;100.00;99776.47;10666311;27;20275;-69
2022/07/31 07:42:43;;;;;;;;;;;;;;;18.47;100.00;99785.75;10666547;27;20355;-66
2022/07/31 07:47:47;;;;;;;;;;;;;;;18.56;100.00;99774.75;10665634;27;20263;-69
2022/07/31 07:53:11;;;;;;;;;;;;;;;18.64;100.00;99783.13;10665383;27;19984;-68
2022/07/31 07:58:14;;;;;;;;;;;;;;;18.69;100.00;99778.47;10666948;27;19927;-69
2022/07/31 08:03:17;;;;;;;;;;;;;;;18.75;100.00;99771.09;10681991;27;20271;-69
2022/07/31 08:08:42;;;;;;;;;;;;;;;18.74;100.00;99772.00;10665246;27;19937;-67
2022/07/31 08:13:45;;;;;;;;;;;;;;;18.79;100.00;99777.91;10665584;27;19927;-69
2022/07/31 08:18:53;;;;;;;;;;;;;;;18.81;100.00;99778.66;10665726;27;19923;-65
2022/07/31 08:23:57;;;;;;;;;;;;;;;18.82;100.00;99776.88;10664507;27;19931;-66
2022/07/31 08:29:01;;;;;;;;;;;;;;;18.86;100.00;99786.31;10664590;27;19923;-68
2022/07/31 08:34:09;;;;;;;;;;;;;;;18.80;100.00;99782.22;10665044;27;19927;-66
2022/07/31 08:39:34;;;;;;;;;;;;;;;18.92;100.00;99785.97;10664190;27;20334;-65
2022/07/31 08:44:37;;;;;;;;;;;;;;;18.89;100.00;99781.75;10646305;27;20283;-69
2022/07/31 08:49:41;;;;;;;;;;;;;;;18.94;100.00;99784.13;10665074;27;19922;-67
2022/07/31 08:54:46;;;;;;;;;;;;;;;19.04;100.00;99790.59;10679557;27;19938;-69
2022/07/31 08:59:51;;;;;;;;;;;;;;;19.06;100.00;99780.84;10707123;27;19933;-68
2022/07/31 09:04:57;;;;;;;;;;;;;;;19.11;100.00;99784.91;10707736;27;19926;-70
2022/07/31 09:10:19;;;;;;;;;;;;;;;19.14;100.00;99783.88;10707122;27;20042;-66
2022/07/31 09:15:23;;;;;;;;;;;;;;;19.13;100.00;99798.84;10707341;27;19923;-69
2022/07/31 09:20:27;;;;;;;;;;;;;;;19.19;100.00;99798.50;10715742;27;19940;-69
2022/07/31 09:32:06;;;;;;;;;;;;;;;19.24;100.00;99806.16;10705179;27;19923;-66
2022/07/31 09:37:13;;;;;;;;;;;;;;;19.24;100.00;99809.63;10714725;27;20300;-65
2022/07/31 09:42:16;;;;;;;;;;;;;;;19.32;100.00;99814.50;10713988;27;19931;-71
2022/07/31 09:47:25;;;;;;;;;;;;;;;19.33;100.00;99816.19;10709091;27;19933;-69
2022/07/31 09:52:31;;;;;;;;;;;;;;;19.35;100.00;99811.72;10670429;27;19922;-67
2022/07/31 09:57:36;;;;;;;;;;;;;;;19.39;100.00;99811.47;10670425;27;19937;-69
2022/07/31 10:02:43;;;;;;;;;;;;;;;19.46;100.00;99804.94;10670298;27;19923;-67
2022/07/31 10:07:46;;;;;;;;;;;;;;;19.50;100.00;99803.81;10670172;27;19937;-68
2022/07/31 10:12:51;;;;;;;;;;;;;;;19.46;100.00;99804.94;10669463;27;20017;-69
2022/07/31 10:17:56;;;;;;;;;;;;;;;19.33;100.00;99810.94;10669694;27;19923;-68
2022/07/31 10:23:05;;;;;;;;;;;;;;;19.22;100.00;99805.41;10670373;27;19957;-68
2022/07/31 10:28:08;;;;;;;;;;;;;;;19.29;100.00;99819.91;10668922;27;19923;-67
2022/07/31 10:33:12;;;;;;;;;;;;;;;19.31;100.00;99826.00;10668949;27;19946;-69
2022/07/31 10:38:40;;;;;;;;;;;;;;;19.33;100.00;99821.47;10669580;27;19934;-68
2022/07/31 10:43:45;;;;;;;;;;;;;;;19.33;100.00;99832.84;10668356;27;19934;-67
2022/07/31 10:48:53;;;;;;;;;;;;;;;19.39;100.00;99829.03;10668190;27;19946;-65
2022/07/31 10:53:57;;;;;;;;;;;;;;;19.38;100.00;99833.44;10675897;27;19929;-68
2022/07/31 10:59:00;;;;;;;;;;;;;;;19.35;100.00;99832.75;10711984;27;19923;-68
2022/07/31 11:04:05;;;;;;;;;;;;;;;19.32;100.00;99831.16;10711194;27;19922;-68
2022/07/31 11:09:08;;;;;;;;;;;;;;;19.44;100.00;99827.00;10710771;27;19926;-67
2022/07/31 11:14:10;;;;;;;;;;;;;;;19.42;100.00;99821.84;10711305;27;20013;-70
2022/07/31 11:19:15;;;;;;;;;;;;;;;19.42;100.00;99834.13;10710017;27;19926;-68
2022/07/31 11:24:19;;;;;;;;;;;;;;;19.45;100.00;99839.22;10709996;27;19927;-69
2022/07/31 11:29:25;;;;;;;;;;;;;;;19.38;100.00;99837.84;10709967;27;20358;-69
2022/07/31 11:34:52;;;;;;;;;;;;;;;19.38;100.00;99843.97;10709732;27;19923;-69
2022/07/31 11:39:55;;;;;;;;;;;;;;;19.37;100.00;99842.28;10708472;27;19933;-71
2022/07/31 11:45:02;;;;;;;;;;;;;;;19.44;100.00;99837.53;10709203;27;19941;-67
2022/07/31 11:50:15;;;;;;;;;;;;;;;19.48;100.00;99844.34;10710105;27;19922;-70
2022/07/31 11:55:18;;;;;;;;;;;;;;;19.50;100.00;99845.09;10712291;27;20005;-69
2022/07/31 12:00:21;;;;;;;;;;;;;;;19.45;100.00;99850.63;10714712;27;19971;-69
2022/07/31 12:05:42;;;;;;;;;;;;;;;19.42;100.00;99855.19;10705752;27;19922;-66
2022/07/31 12:10:45;;;;;;;;;;;;;;;19.47;100.00;99856.66;10680063;27;20328;-67
2022/07/31 12:15:56;;;;;;;;;;;;;;;19.51;100.00;99859.97;10671391;27;19923;-71
2022/07/31 12:21:01;;;;;;;;;;;;;;;19.45;100.00;99855.00;10670933;27;19923;-68
2022/07/31 12:26:04;;;;;;;;;;;;;;;19.36;100.00;99859.00;10670568;27;19929;-71
2022/07/31 12:31:07;;;;;;;;;;;;;;;19.32;100.00;99864.53;10670721;27;19930;-66
2022/07/31 12:36:13;;;;;;;;;;;;;;;19.37;100.00;99865.97;10670083;27;19923;-67
2022/07/31 12:41:16;;;;;;;;;;;;;;;19.35;100.00;99857.31;10670395;27;19923;-65
2022/07/31 12:46:20;;;;;;;;;;;;;;;19.29;100.00;99857.59;10670108;27;20263;-66
2022/07/31 12:51:24;;;;;;;;;;;;;;;19.33;100.00;99860.94;10674423;27;20248;-69
2022/07/31 12:56:47;;;;;;;;;;;;;;;19.38;100.00;99848.38;10679132;27;19923;-67
2022/07/31 13:01:50;;;;;;;;;;;;;;;19.39;100.00;99852.72;10678653;27;20341;-67
2022/07/31 13:06:55;;;;;;;;;;;;;;;19.36;100.00;99847.66;10678584;27;19924;-68
2022/07/31 13:11:58;;;;;;;;;;;;;;;19.34;100.00;99860.88;10678214;27;20251;-66
2022/07/31 13:17:01;;;;;;;;;;;;;;;19.35;100.00;99859.09;10678393;27;19933;-68
2022/07/31 13:22:06;;;;;;;;;;;;;;;19.31;100.00;99857.56;10678023;27;19923;-69
2022/07/31 13:27:09;;;;;;;;;;;;;;;19.33;100.00;99866.22;10677685;27;20336;-68
2022/07/31 13:32:12;;;;;;;;;;;;;;;19.27;100.00;99871.78;10333636;27;9999791;-67
2022/07/31 13:37:16;;;;;;;;;;;;;;;19.26;100.00;99867.44;10714065;27;19923;-66
2022/07/31 13:42:19;;;;;;;;;;;;;;;19.29;100.00;99872.56;10714358;27;20504;-68
2022/07/31 13:47:22;;;;;;;;;;;;;;;19.24;100.00;99877.22;10714858;27;19927;-67
2022/07/31 13:52:27;;;;;;;;;;;;;;;19.14;100.00;99884.72;10713918;27;19926;-65
2022/07/31 13:57:30;;;;;;;;;;;;;;;19.19;100.00;99887.97;10695699;27;20244;-67
2022/07/31 14:02:33;;;;;;;;;;;;;;;19.17;100.00;99886.38;10713304;27;20010;-68
2022/07/31 14:07:37;;;;;;;;;;;;;;;19.14;100.00;99892.63;10713440;27;19927;-67
2022/07/31 14:12:47;;;;;;;;;;;;;;;19.07;100.00;99888.59;10713480;27;19950;-64
2022/07/31 14:17:50;;;;;;;;;;;;;;;19.04;100.00;99901.06;10713377;27;20370;-66
2022/07/31 14:22:54;;;;;;;;;;;;;;;19.04;100.00;99890.53;10713253;27;20252;-68
2022/07/31 14:27:57;;;;;;;;;;;;;;;19.04;100.00;99898.44;10712151;27;19926;-66
2022/07/31 14:33:01;;;;;;;;;;;;;;;19.06;100.00;99905.34;10688224;27;19923;-66
2022/07/31 14:38:05;;;;;;;;;;;;;;;19.01;100.00;99904.72;10669438;27;19927;-67
2022/07/31 14:43:09;;;;;;;;;;;;;;;19.03;100.00;99909.91;10668653;27;19937;-68
2022/07/31 14:48:12;;;;;;;;;;;;;;;19.08;100.00;99910.50;10668230;27;19937;-65
2022/07/31 14:53:19;;;;;;;;;;;;;;;19.03;100.00;99909.91;10668282;27;19934;-64
2022/07/31 14:58:22;;;;;;;;;;;;;;;19.07;100.00;99916.72;10669053;27;19923;-65
2022/07/31 15:03:25;;;;;;;;;;;;;;;19.05;100.00;99914.13;10667615;27;19937;-66
2022/07/31 15:08:29;;;;;;;;;;;;;;;19.05;100.00;99914.13;10667750;27;19923;-67
2022/07/31 15:13:32;;;;;;;;;;;;;;;18.99;100.00;99913.63;10666921;27;20002;-64
2022/07/31 15:18:40;;;;;;;;;;;;;;;18.99;100.00;99921.50;10667233;27;19931;-65
2022/07/31 15:23:45;;;;;;;;;;;;;;;18.97;100.00;99926.84;10666944;27;19923;-67
2022/07/31 15:28:48;;;;;;;;;;;;;;;18.88;100.00;99923.84;10666472;27;20017;-64
2022/07/31 15:33:53;;;;;;;;;;;;;;;18.80;100.00;99939.16;10693940;27;19931;-66
2022/07/31 15:38:57;;;;;;;;;;;;;;;18.73;100.00;99937.75;10709678;27;19989;-67
2022/07/31 15:44:00;;;;;;;;;;;;;;;18.73;100.00;99948.25;10709330;27;20078;-68
2022/07/31 15:49:06;;;;;;;;;;;;;;;18.68;100.00;99943.25;10709911;27;19937;-66
2022/07/31 15:54:11;;;;;;;;;;;;;;;18.60;100.00;99955.06;10690180;27;19937;-66
2022/07/31 15:59:13;;;;;;;;;;;;;;;18.59;100.00;99953.34;10665046;27;19923;-71
2022/07/31 16:04:16;;;;;;;;;;;;;;;18.55;100.00;99959.69;10665218;27;20344;-66
2022/07/31 16:09:22;;;;;;;;;;;;;;;18.58;100.00;99963.03;10665727;27;19927;-68
2022/07/31 16:14:26;;;;;;;;;;;;;;;18.52;100.00;99965.13;10664636;27;19939;-65
2022/07/31 16:19:29;;;;;;;;;;;;;;;18.49;100.00;99978.38;10664845;27;19923;-70
2022/07/31 16:24:37;;;;;;;;;;;;;;;18.53;100.00;99972.06;10665505;27;20046;-70
2022/07/31 16:29:40;;;;;;;;;;;;;;;18.49;100.00;99978.38;10664191;27;20312;-68
2022/07/31 16:35:05;;;;;;;;;;;;;;;18.46;100.00;99991.69;10705356;27;19933;-67
2022/07/31 16:40:12;;;;;;;;;;;;;;;18.46;100.00;99989.91;10707024;27;20290;-67
2022/07/31 16:45:34;;;;;;;;;;;;;;;18.47;100.00;100004.75;10707423;27;20640;-66
2022/07/31 16:50:37;;;;;;;;;;;;;;;18.39;100.00;100006.88;10707211;27;19923;-67
2022/07/31 16:55:44;;;;;;;;;;;;;;;18.37;100.00;100008.72;10706899;27;19934;-66
2022/07/31 17:01:03;;;;;;;;;;;;;;;18.30;100.00;100012.53;10708405;27;19926;-68
2022/07/31 17:06:06;;;;;;;;;;;;;;;18.30;100.00;100018.66;10707478;27;19978;-66
2022/07/31 17:11:10;;;;;;;;;;;;;;;18.28;100.00;100010.00;10706662;27;19937;-65
2022/07/31 17:16:13;;;;;;;;;;;;;;;18.24;100.00;100013.69;10707652;27;20021;-63
2022/07/31 17:21:17;;;;;;;;;;;;;;;18.23;100.00;100019.88;10706355;27;20263;-68
2022/07/31 17:26:26;;;;;;;;;;;;;;;18.17;100.00;100022.75;10706525;27;19941;-67
2022/07/31 17:31:30;;;;;;;;;;;;;;;18.13;100.00;100023.00;10695770;27;20022;-68
2022/07/31 17:36:34;;;;;;;;;;;;;;;18.20;100.00;100041.03;10664045;27;19975;-68
2022/07/31 17:41:39;;;;;;;;;;;;;;;18.22;100.00;100036.53;10670784;27;19980;-71
2022/07/31 17:46:42;;;;;;;;;;;;;;;18.22;100.00;100047.03;10670975;27;20018;-65
2022/07/31 17:51:50;;;;;;;;;;;;;;;18.18;100.00;100042.88;10671535;27;19926;-69
2022/07/31 17:57:03;;;;;;;;;;;;;;;18.17;100.00;100054.28;10670050;27;20003;-66
2022/07/31 18:02:06;;;;;;;;;;;;;;;18.18;100.00;100050.75;10669937;27;20132;-64
2022/07/31 18:07:11;;;;;;;;;;;;;;;18.09;100.00;100056.44;10676728;27;20302;-68
2022/07/31 18:12:18;;;;;;;;;;;;;;;18.05;100.00;100064.53;10675477;27;19931;-63
2022/07/31 18:17:21;;;;;;;;;;;;;;;17.95;100.00;100074.56;10669633;27;19923;-62
2022/07/31 18:22:25;;;;;;;;;;;;;;;17.92;100.00;100081.75;10670342;27;19931;-64
2022/07/31 18:27:38;;;;;;;;;;;;;;;17.97;100.00;100075.38;10674714;27;20463;-64
2022/07/31 18:32:41;;;;;;;;;;;;;;;17.91;100.00;100086.13;10701139;27;19924;-65
2022/07/31 18:37:46;;;;;;;;;;;;;;;17.87;100.00;100075.84;10650951;27;20104;-65
2022/07/31 18:42:50;;;;;;;;;;;;;;;17.85;100.00;100085.56;10669088;27;19923;-66
2022/07/31 18:47:54;;;;;;;;;;;;;;;17.77;100.00;100087.66;10668624;27;19934;-65
2022/07/31 18:52:57;;;;;;;;;;;;;;;17.78;100.00;100094.63;10668117;27;19966;-65
2022/07/31 18:58:01;;;;;;;;;;;;;;;17.77;100.00;100093.78;10667849;27;20283;-62
2022/07/31 19:03:06;;;;;;;;;;;;;;;17.76;100.00;100092.06;10668527;27;20018;-67
2022/07/31 19:08:09;;;;;;;;;;;;;;;17.75;100.00;100100.88;10668157;27;19962;-65
2022/07/31 19:13:17;;;;;;;;;;;;;;;17.70;100.00;100110.72;10668538;27;19934;-66
2022/07/31 19:18:21;;;;;;;;;;;;;;;17.65;100.00;100117.94;10667755;27;19927;-62
2022/07/31 19:23:30;;;;;;;;;;;;;;;17.63;100.00;100114.53;10667373;27;19931;-66
2022/07/31 19:28:35;;;;;;;;;;;;;;;17.63;100.00;100121.53;10666661;27;19991;-64
2022/07/31 19:33:38;;;;;;;;;;;;;;;17.57;100.00;100122.63;10666117;27;20018;-66
2022/07/31 19:38:43;;;;;;;;;;;;;;;17.65;100.00;100117.94;10667105;27;20026;-69
2022/07/31 19:43:48;;;;;;;;;;;;;;;17.66;100.00;100124.88;10666156;27;20407;-65
2022/07/31 19:48:52;;;;;;;;;;;;;;;17.67;100.00;100126.56;10648213;27;20396;-66
2022/07/31 19:53:55;;;;;;;;;;;;;;;17.57;100.00;100120.00;10666394;27;19923;-67
2022/07/31 19:59:01;;;;;;;;;;;;;;;17.63;100.00;100118.91;10665751;27;20378;-67
2022/07/31 20:04:04;;;;;;;;;;;;;;;17.57;100.00;100125.25;10665388;27;20240;-66
2022/07/31 20:09:07;;;;;;;;;;;;;;;17.58;100.00;100116.50;10665278;27;19927;-67
2022/07/31 20:14:12;;;;;;;;;;;;;;;17.65;100.00;100111.81;10665726;27;19930;-68
2022/07/31 20:19:15;;;;;;;;;;;;;;;17.54;100.00;100120.16;10665099;27;19927;-66
2022/07/31 20:24:18;;;;;;;;;;;;;;;17.56;100.00;100122.72;10664663;27;19923;-65
2022/07/31 20:29:23;;;;;;;;;;;;;;;17.65;100.00;100122.31;10665544;27;19923;-66
2022/07/31 20:34:26;;;;;;;;;;;;;;;17.59;100.00;100118.19;10700261;27;19949;-68
2022/07/31 20:39:32;;;;;;;;;;;;;;;17.54;100.00;100121.91;10708139;27;20252;-66
2022/07/31 20:44:40;;;;;;;;;;;;;;;17.54;100.00;100121.91;10707847;27;20311;-67
2022/07/31 20:49:43;;;;;;;;;;;;;;;17.50;100.00;100118.56;10708282;27;19927;-66
2022/07/31 20:54:46;;;;;;;;;;;;;;;17.47;100.00;100121.31;10707044;27;20425;-66
2022/07/31 20:59:51;;;;;;;;;;;;;;;17.48;100.00;100128.25;10707645;27;19934;-65
2022/07/31 21:04:54;;;;;;;;;;;;;;;17.42;100.00;100122.41;10707958;27;19933;-66
2022/07/31 21:09:57;;;;;;;;;;;;;;;17.42;100.00;100127.66;10707067;27;20018;-66
2022/07/31 21:15:02;;;;;;;;;;;;;;;17.48;100.00;100130.06;10715168;27;20363;-65
2022/07/31 21:20:07;;;;;;;;;;;;;;;17.48;100.00;100127.44;10716331;27;19927;-67
2022/07/31 21:25:11;;;;;;;;;;;;;;;17.46;100.00;100129.22;10716022;27;19922;-67
2022/07/31 21:30:15;;;;;;;;;;;;;;;17.49;100.00;100132.63;10714759;27;19931;-68
2022/07/31 21:35:19;;;;;;;;;;;;;;;17.52;100.00;100137.72;10714759;27;19979;-69
2022/07/31 21:40:39;;;;;;;;;;;;;;;17.43;100.00;100135.44;10683284;27;19927;-68
2022/07/31 21:45:44;;;;;;;;;;;;;;;17.45;100.00;100143.28;10670850;27;19958;-69
2022/07/31 21:50:57;;;;;;;;;;;;;;;17.41;100.00;100139.94;10674650;27;19923;-69
2022/07/31 21:56:01;;;;;;;;;;;;;;;17.42;100.00;100135.50;10677225;27;20289;-69
2022/07/31 22:01:06;;;;;;;;;;;;;;;17.40;100.00;100140.84;10676575;27;20022;-68
2022/07/31 22:11:30;;;;;;;;;;;;;;;17.43;100.00;100138.06;10676209;27;20353;-68
2022/07/31 22:16:36;;;;;;;;;;;;;;;17.41;100.00;100132.06;10675925;27;19923;-67
2022/07/31 22:21:41;;;;;;;;;;;;;;;17.46;100.00;100140.63;10675905;27;19923;-69
2022/07/31 22:32:04;;;;;;;;;;;;;;;17.45;100.00;100128.38;10674614;27;19978;-69
2022/07/31 22:37:08;;;;;;;;;;;;;;;17.51;100.00;100125.53;10675080;27;20068;-71
2022/07/31 22:42:13;;;;;;;;;;;;;;;17.45;100.00;100115.25;10675073;27;19923;-68
2022/07/31 22:47:17;;;;;;;;;;;;;;;17.45;100.00;100125.75;10674629;27;19987;-68
2022/07/31 22:52:20;;;;;;;;;;;;;;;17.37;100.00;100121.72;10674408;27;19933;-68
2022/07/31 22:57:23;;;;;;;;;;;;;;;17.37;100.00;100122.59;10674241;27;20235;-67
2022/07/31 23:02:30;;;;;;;;;;;;;;;17.41;100.00;100121.56;10674245;27;19989;-68
2022/07/31 23:07:33;;;;;;;;;;;;;;;17.39;100.00;100122.53;10673991;27;19927;-66
2022/07/31 23:12:36;;;;;;;;;;;;;;;17.40;100.00;100127.72;10673588;27;19923;-69
2022/07/31 23:17:40;;;;;;;;;;;;;;;17.39;100.00;100122.53;10673436;27;19923;-68
2022/07/31 23:22:43;;;;;;;;;;;;;;;17.46;100.00;100122.25;10673320;27;19923;-67
2022/07/31 23:27:46;;;;;;;;;;;;;;;17.39;100.00;100127.78;10672885;27;19929;-69
2022/07/31 23:32:51;;;;;;;;;;;;;;;17.45;100.00;100135.41;10672691;27;19923;-67
2022/07/31 23:37:54;;;;;;;;;;;;;;;17.39;100.00;100136.50;10671622;27;19923;-69
2022/07/31 23:42:57;;;;;;;;;;;;;;;17.42;100.00;100136.38;10672412;27;19923;-66
2022/07/31 23:48:01;;;;;;;;;;;;;;;17.46;100.00;100143.25;10672357;27;20226;-67
2022/07/31 23:53:05;;;;;;;;;;;;;;;17.46;100.00;100139.72;10672401;27;20251;-69
2022/07/31 23:58:08;;;;;;;;;;;;;;;17.48;100.00;100149.25;10671708;27;19933;-70
